DLH2446 EDDF-LFPG
Flight info
| Callsign | DLH2446 |
|---|---|
| Flight time | N/A |
| Altitude | 24000 |
| Route | SOBRA2L/18 SOBRA Y180 DIK UN857 TOLVU/N0353F230 DCT RAPOR DCT VEDUS |
| Aircraft | A20N/M-SDE2E3FGHIRWXY/LB1 |
Departure
| Time | 2026-04-14 15:19 |
|---|---|
| Airport | Frankfurt Main Airport (EDDF) |
Arrival
| Time | N/A |
|---|---|
| Airport | Charles de Gaulle International Airport (LFPG) |
| Time | Latitude | Longitude | Altitude | Speed | Heading |
|---|---|---|---|---|---|
| 2026-04-14 14:57 | 50.04416 | 8.56276 | 355 ft | 0 kts | 162° |
| 2026-04-14 15:06 | 50.04420 | 8.56274 | 355 ft | 1 kts | 162° |
| 2026-04-14 15:07 | 50.04427 | 8.56270 | 364 ft | 1 kts | 162° |
| 2026-04-14 15:07 | 50.04444 | 8.56262 | 362 ft | 2 kts | 162° |
| 2026-04-14 15:07 | 50.04454 | 8.56257 | 359 ft | 2 kts | 162° |
| 2026-04-14 15:08 | 50.04456 | 8.56255 | 357 ft | 2 kts | 165° |
| 2026-04-14 15:08 | 50.04476 | 8.56251 | 361 ft | 3 kts | 190° |
| 2026-04-14 15:08 | 50.04491 | 8.56261 | 363 ft | 2 kts | 237° |
| 2026-04-14 15:08 | 50.04496 | 8.56282 | 362 ft | 2 kts | 263° |
| 2026-04-14 15:09 | 50.04499 | 8.56302 | 358 ft | 0 kts | 249° |
| 2026-04-14 15:11 | 50.04498 | 8.56301 | 358 ft | 1 kts | 249° |
| 2026-04-14 15:12 | 50.04493 | 8.56282 | 362 ft | 5 kts | 248° |
| 2026-04-14 15:12 | 50.04475 | 8.56209 | 356 ft | 8 kts | 248° |
| 2026-04-14 15:12 | 50.04451 | 8.56113 | 363 ft | 11 kts | 249° |
| 2026-04-14 15:12 | 50.04435 | 8.56052 | 359 ft | 0 kts | 245° |
| 2026-04-14 15:13 | 50.04426 | 8.56038 | 356 ft | 3 kts | 214° |
| 2026-04-14 15:13 | 50.04394 | 8.56027 | 356 ft | 7 kts | 173° |
| 2026-04-14 15:13 | 50.04341 | 8.56057 | 362 ft | 7 kts | 159° |
| 2026-04-14 15:13 | 50.04275 | 8.56061 | 357 ft | 12 kts | 213° |
| 2026-04-14 15:14 | 50.04234 | 8.55920 | 357 ft | 17 kts | 250° |
| 2026-04-14 15:14 | 50.04188 | 8.55728 | 357 ft | 19 kts | 250° |
| 2026-04-14 15:14 | 50.04139 | 8.55528 | 356 ft | 21 kts | 249° |
| 2026-04-14 15:14 | 50.04084 | 8.55292 | 353 ft | 24 kts | 250° |
| 2026-04-14 15:15 | 50.04022 | 8.55036 | 360 ft | 27 kts | 249° |
| 2026-04-14 15:15 | 50.03951 | 8.54737 | 354 ft | 31 kts | 249° |
| 2026-04-14 15:15 | 50.03873 | 8.54415 | 352 ft | 31 kts | 249° |
| 2026-04-14 15:15 | 50.03772 | 8.54110 | 348 ft | 33 kts | 250° |
| 2026-04-14 15:16 | 50.03689 | 8.53761 | 349 ft | 36 kts | 250° |
| 2026-04-14 15:16 | 50.03597 | 8.53389 | 337 ft | 37 kts | 250° |
| 2026-04-14 15:16 | 50.03530 | 8.53104 | 333 ft | 0 kts | 249° |
| 2026-04-14 15:16 | 50.03523 | 8.53078 | 337 ft | 5 kts | 249° |
| 2026-04-14 15:17 | 50.03504 | 8.52995 | 333 ft | 11 kts | 250° |
| 2026-04-14 15:17 | 50.03493 | 8.52952 | 336 ft | 5 kts | 250° |
| 2026-04-14 15:17 | 50.03472 | 8.52875 | 332 ft | 11 kts | 245° |
| 2026-04-14 15:17 | 50.03438 | 8.52750 | 333 ft | 15 kts | 249° |
| 2026-04-14 15:18 | 50.03408 | 8.52634 | 334 ft | 13 kts | 240° |
| 2026-04-14 15:18 | 50.03319 | 8.52594 | 333 ft | 16 kts | 179° |
| 2026-04-14 15:18 | 50.03116 | 8.52598 | 335 ft | 55 kts | 180° |
| 2026-04-14 15:18 | 50.02457 | 8.52604 | 335 ft | 134 kts | 179° |
| 2026-04-14 15:19 | 50.01313 | 8.52625 | 635 ft | 174 kts | 176° |
| 2026-04-14 15:19 | 50.00098 | 8.52682 | 1651 ft | 175 kts | 176° |
| 2026-04-14 15:19 | 49.98853 | 8.52761 | 2651 ft | 186 kts | 177° |
| 2026-04-14 15:19 | 49.97494 | 8.52857 | 3436 ft | 205 kts | 176° |
| 2026-04-14 15:20 | 49.95979 | 8.52965 | 3937 ft | 230 kts | 176° |
| 2026-04-14 15:20 | 49.94330 | 8.53076 | 3994 ft | 240 kts | 177° |
| 2026-04-14 15:20 | 49.92668 | 8.53182 | 3996 ft | 239 kts | 177° |
| 2026-04-14 15:20 | 49.91213 | 8.53271 | 3991 ft | 239 kts | 177° |
| 2026-04-14 15:21 | 49.89553 | 8.53371 | 3995 ft | 239 kts | 177° |
| 2026-04-14 15:21 | 49.87889 | 8.53413 | 3992 ft | 240 kts | 184° |
| 2026-04-14 15:21 | 49.86252 | 8.52915 | 3988 ft | 240 kts | 199° |
| 2026-04-14 15:21 | 49.84669 | 8.51990 | 4001 ft | 263 kts | 201° |
| 2026-04-14 15:22 | 49.82916 | 8.50979 | 3988 ft | 270 kts | 200° |
| 2026-04-14 15:22 | 49.81150 | 8.49980 | 3990 ft | 271 kts | 200° |
| 2026-04-14 15:22 | 49.79374 | 8.48983 | 3991 ft | 271 kts | 200° |
| 2026-04-14 15:22 | 49.77637 | 8.47871 | 3985 ft | 270 kts | 213° |
| 2026-04-14 15:23 | 49.76326 | 8.45849 | 3992 ft | 269 kts | 241° |
| 2026-04-14 15:23 | 49.75777 | 8.43137 | 3998 ft | 265 kts | 269° |
| 2026-04-14 15:23 | 49.76044 | 8.40349 | 3986 ft | 262 kts | 286° |
| 2026-04-14 15:23 | 49.76510 | 8.37625 | 3995 ft | 263 kts | 287° |
| 2026-04-14 15:24 | 49.76981 | 8.34897 | 3995 ft | 262 kts | 287° |
| 2026-04-14 15:24 | 49.77437 | 8.32176 | 3991 ft | 262 kts | 286° |
| 2026-04-14 15:24 | 49.77887 | 8.29436 | 4000 ft | 263 kts | 286° |
| 2026-04-14 15:24 | 49.78331 | 8.26695 | 3996 ft | 262 kts | 286° |
| 2026-04-14 15:25 | 49.78771 | 8.23953 | 3995 ft | 263 kts | 285° |
| 2026-04-14 15:25 | 49.79209 | 8.21208 | 3999 ft | 263 kts | 285° |
| 2026-04-14 15:25 | 49.79651 | 8.18445 | 4182 ft | 266 kts | 285° |
| 2026-04-14 15:25 | 49.80094 | 8.15662 | 4950 ft | 268 kts | 285° |
| 2026-04-14 15:26 | 49.80536 | 8.12875 | 6130 ft | 267 kts | 286° |
| 2026-04-14 15:26 | 49.80983 | 8.10053 | 7123 ft | 273 kts | 285° |
| 2026-04-14 15:26 | 49.81438 | 8.07190 | 8164 ft | 275 kts | 285° |
| 2026-04-14 15:26 | 49.81900 | 8.04297 | 9200 ft | 279 kts | 284° |
| 2026-04-14 15:27 | 49.82367 | 8.01368 | 10214 ft | 282 kts | 283° |
| 2026-04-14 15:27 | 49.82847 | 7.98339 | 10860 ft | 300 kts | 283° |
| 2026-04-14 15:27 | 49.83358 | 7.95081 | 11231 ft | 323 kts | 283° |
| 2026-04-14 15:27 | 49.83903 | 7.91607 | 11822 ft | 337 kts | 283° |
| 2026-04-14 15:28 | 49.84459 | 7.88054 | 12643 ft | 343 kts | 284° |
| 2026-04-14 15:28 | 49.85023 | 7.84444 | 13037 ft | 346 kts | 284° |
| 2026-04-14 15:28 | 49.85589 | 7.80811 | 13188 ft | 347 kts | 284° |
| 2026-04-14 15:28 | 49.86154 | 7.77173 | 13192 ft | 347 kts | 284° |
| 2026-04-14 15:29 | 49.86724 | 7.73532 | 13183 ft | 348 kts | 284° |
| 2026-04-14 15:29 | 49.87298 | 7.69886 | 13185 ft | 349 kts | 284° |
| 2026-04-14 15:29 | 49.87867 | 7.66231 | 13188 ft | 349 kts | 284° |
| 2026-04-14 15:29 | 49.88433 | 7.62568 | 13185 ft | 350 kts | 284° |
| 2026-04-14 15:30 | 49.88998 | 7.58903 | 13184 ft | 349 kts | 284° |
| 2026-04-14 15:30 | 49.89563 | 7.55226 | 13336 ft | 353 kts | 284° |
| 2026-04-14 15:30 | 49.90135 | 7.51502 | 14114 ft | 355 kts | 285° |
| 2026-04-14 15:30 | 49.90705 | 7.47773 | 15022 ft | 356 kts | 284° |
| 2026-04-14 15:31 | 49.91279 | 7.44019 | 15833 ft | 359 kts | 284° |
| 2026-04-14 15:31 | 49.91856 | 7.40229 | 16650 ft | 363 kts | 284° |
| 2026-04-14 15:31 | 49.92440 | 7.36401 | 17439 ft | 366 kts | 284° |
| 2026-04-14 15:31 | 49.93028 | 7.32537 | 18223 ft | 370 kts | 284° |
| 2026-04-14 15:32 | 49.93620 | 7.28632 | 18921 ft | 374 kts | 284° |
| 2026-04-14 15:32 | 49.94215 | 7.24696 | 19602 ft | 377 kts | 284° |
| 2026-04-14 15:32 | 49.94815 | 7.20718 | 20273 ft | 380 kts | 284° |
| 2026-04-14 15:32 | 49.95418 | 7.16704 | 20942 ft | 383 kts | 284° |
| 2026-04-14 15:33 | 49.96024 | 7.12658 | 21607 ft | 387 kts | 284° |
| 2026-04-14 15:33 | 49.96635 | 7.08577 | 22272 ft | 389 kts | 284° |
| 2026-04-14 15:33 | 49.97249 | 7.04460 | 22915 ft | 393 kts | 285° |
| 2026-04-14 15:33 | 49.97868 | 7.00307 | 23563 ft | 396 kts | 285° |
| 2026-04-14 15:34 | 49.98490 | 6.96116 | 24000 ft | 400 kts | 285° |
| 2026-04-14 15:34 | 49.99013 | 6.91864 | 24146 ft | 402 kts | 279° |
| 2026-04-14 15:34 | 49.99216 | 6.87524 | 24179 ft | 404 kts | 273° |
| 2026-04-14 15:34 | 49.99178 | 6.84899 | 24173 ft | 405 kts | 269° |
| 2026-04-14 15:35 | 49.99030 | 6.80532 | 24169 ft | 405 kts | 270° |
| 2026-04-14 15:35 | 49.98898 | 6.76169 | 24181 ft | 405 kts | 270° |
| 2026-04-14 15:35 | 49.98769 | 6.71800 | 24177 ft | 405 kts | 270° |
| 2026-04-14 15:35 | 49.98638 | 6.67434 | 24177 ft | 405 kts | 270° |
| 2026-04-14 15:36 | 49.98506 | 6.63070 | 24174 ft | 405 kts | 270° |
| 2026-04-14 15:36 | 49.98237 | 6.58708 | 24175 ft | 407 kts | 263° |
| 2026-04-14 15:36 | 49.97616 | 6.54413 | 24178 ft | 409 kts | 256° |
| 2026-04-14 15:36 | 49.96649 | 6.50240 | 24174 ft | 413 kts | 249° |
| 2026-04-14 15:37 | 49.95492 | 6.46165 | 24171 ft | 413 kts | 249° |
| 2026-04-14 15:37 | 49.94342 | 6.42078 | 24175 ft | 413 kts | 249° |
| 2026-04-14 15:37 | 49.93197 | 6.37995 | 24170 ft | 413 kts | 249° |
| 2026-04-14 15:37 | 49.92051 | 6.33910 | 24173 ft | 413 kts | 249° |
| 2026-04-14 15:38 | 49.90901 | 6.29820 | 24172 ft | 414 kts | 249° |
| 2026-04-14 15:38 | 49.89744 | 6.25738 | 24181 ft | 414 kts | 249° |
| 2026-04-14 15:38 | 49.88541 | 6.21683 | 24179 ft | 414 kts | 249° |
| 2026-04-14 15:38 | 49.87397 | 6.17654 | 24178 ft | 414 kts | 250° |
| 2026-04-14 15:39 | 49.86165 | 6.13550 | 24180 ft | 416 kts | 245° |
| 2026-04-14 15:39 | 49.84642 | 6.09725 | 24179 ft | 419 kts | 238° |
| 2026-04-14 15:39 | 49.82947 | 6.06049 | 24182 ft | 419 kts | 237° |
| 2026-04-14 15:39 | 49.81255 | 6.02374 | 24183 ft | 419 kts | 238° |
| 2026-04-14 15:40 | 49.79563 | 5.98696 | 24181 ft | 420 kts | 238° |
| 2026-04-14 15:40 | 49.77867 | 5.95014 | 24187 ft | 420 kts | 238° |
| 2026-04-14 15:40 | 49.76171 | 5.91336 | 24185 ft | 420 kts | 237° |
| 2026-04-14 15:40 | 49.74600 | 5.87550 | 24186 ft | 417 kts | 244° |
| 2026-04-14 15:41 | 49.73353 | 5.83519 | 24186 ft | 415 kts | 251° |
| 2026-04-14 15:41 | 49.72375 | 5.79335 | 24187 ft | 414 kts | 254° |
| 2026-04-14 15:41 | 49.71413 | 5.75141 | 24184 ft | 414 kts | 254° |
| 2026-04-14 15:41 | 49.70445 | 5.70956 | 24182 ft | 414 kts | 253° |
| 2026-04-14 15:42 | 49.69473 | 5.66775 | 24182 ft | 414 kts | 253° |
| 2026-04-14 15:42 | 49.68497 | 5.62590 | 24182 ft | 414 kts | 254° |
| 2026-04-14 15:42 | 49.67518 | 5.58404 | 24187 ft | 414 kts | 253° |
| 2026-04-14 15:42 | 49.66537 | 5.54220 | 24185 ft | 415 kts | 254° |
| 2026-04-14 15:43 | 49.65556 | 5.50039 | 24185 ft | 415 kts | 254° |
| 2026-04-14 15:43 | 49.64572 | 5.45857 | 24186 ft | 415 kts | 253° |
| 2026-04-14 15:43 | 49.63587 | 5.41674 | 24188 ft | 415 kts | 253° |
| 2026-04-14 15:43 | 49.62600 | 5.37495 | 24190 ft | 415 kts | 253° |
| 2026-04-14 15:44 | 49.61643 | 5.33297 | 24191 ft | 414 kts | 255° |
| 2026-04-14 15:44 | 49.60747 | 5.29079 | 24190 ft | 414 kts | 256° |
| 2026-04-14 15:44 | 49.59910 | 5.24845 | 24190 ft | 412 kts | 260° |
| 2026-04-14 15:44 | 49.59371 | 5.20527 | 24195 ft | 409 kts | 266° |
| 2026-04-14 15:45 | 49.59170 | 5.16175 | 24195 ft | 406 kts | 273° |
| 2026-04-14 15:45 | 49.59196 | 5.13305 | 24194 ft | 404 kts | 275° |
| 2026-04-14 15:45 | 49.59264 | 5.07505 | 24194 ft | 405 kts | 275° |
| 2026-04-14 15:45 | 49.59303 | 5.03169 | 24194 ft | 405 kts | 275° |
| 2026-04-14 15:46 | 49.59337 | 4.98832 | 24197 ft | 404 kts | 275° |
| 2026-04-14 15:46 | 49.59367 | 4.94499 | 24197 ft | 405 kts | 275° |
| 2026-04-14 15:46 | 49.59396 | 4.90165 | 24198 ft | 405 kts | 275° |
| 2026-04-14 15:46 | 49.59426 | 4.85826 | 24198 ft | 405 kts | 275° |
| 2026-04-14 15:47 | 49.59454 | 4.81491 | 24196 ft | 404 kts | 274° |
| 2026-04-14 15:47 | 49.59480 | 4.77158 | 24197 ft | 404 kts | 274° |
| 2026-04-14 15:47 | 49.59503 | 4.72822 | 24201 ft | 405 kts | 274° |
| 2026-04-14 15:47 | 49.59526 | 4.68487 | 24201 ft | 404 kts | 274° |